Time;durP1;ratioP1;P1;durP2;ratioP2;P2;SDS_P1;SDS_P2;PMS_P1;PMS_P2;Temp;Humidity;BMP_temperature;BMP_pressure;BME280_temperature;BME280_humidity;BME280_pressure;Samples;Min_cycle;Max_cycle;Signal;HPM_P1;HPM_P2
2022/09/21 00:00:44;;;;;;;1.90;1.05;;;;;;;-140.72;100.00;52829.19;5038458;28;20037;-68
2022/09/21 00:03:10;;;;;;;5.32;0.70;;;;;;;-140.72;100.00;52825.13;5039515;28;20022;-69
2022/09/21 00:05:35;;;;;;;2.20;1.13;;;;;;;-140.72;100.00;52764.25;5039015;28;20026;-69
2022/09/21 00:08:06;;;;;;;2.92;0.95;;;;;;;-140.72;100.00;52752.06;5040769;28;20099;-68
2022/09/21 00:10:32;;;;;;;2.55;0.70;;;;;;;-140.72;100.00;52768.28;5039173;28;20060;-69
2022/09/21 00:13:02;;;;;;;3.92;0.73;;;;;;;-140.72;100.00;52784.53;5039240;28;20037;-69
2022/09/21 00:15:28;;;;;;;;;;;;;;;-140.72;100.00;52798.72;5039937;28;20057;-69
2022/09/21 00:17:56;;;;;;;1.55;1.00;;;;;;;-140.72;100.00;52786.56;5040788;28;20418;-69
2022/09/21 00:20:23;;;;;;;1.58;1.02;;;;;;;-140.72;100.00;52792.66;5040766;28;20039;-68
2022/09/21 00:22:50;;;;;;;1.38;0.73;;;;;;;-140.72;100.00;52754.09;5038175;28;20025;-69
2022/09/21 00:25:16;;;;;;;5.95;1.00;;;;;;;-140.72;100.00;52786.56;5041694;28;20040;-68
2022/09/21 00:27:42;;;;;;;1.25;0.80;;;;;;;-140.72;100.00;52752.06;5042164;28;20033;-68
2022/09/21 00:30:14;;;;;;;3.05;1.10;;;;;;;-140.72;100.00;52800.75;5040596;28;20353;-68
2022/09/21 00:32:40;;;;;;;4.10;0.90;;;;;;;-140.72;100.00;52760.19;5029709;28;20544;-68
2022/09/21 00:35:08;;;;;;;1.60;0.90;;;;;;;-140.72;100.00;52827.16;5040796;28;20099;-68
2022/09/21 00:37:35;;;;;;;3.28;1.20;;;;;;;-140.72;100.00;52786.56;5033947;28;20469;-68
2022/09/21 00:40:02;;;;;;;0.70;0.57;;;;;;;-140.72;100.00;52796.72;5037720;28;20033;-67
2022/09/21 00:42:31;;;;;;;5.43;1.70;;;;;;;-140.72;100.00;52774.38;5040391;28;20037;-69
2022/09/21 00:44:57;;;;;;;2.85;1.45;;;;;;;-140.72;100.00;52784.53;5041175;28;20039;-69
2022/09/21 00:47:44;;;;;;;2.80;1.17;;;;;;;-140.72;100.00;52808.88;5040061;28;20036;-68
2022/09/21 00:50:16;;;;;;;1.83;0.82;;;;;;;-140.72;100.00;52800.75;5040412;28;20087;-68
2022/09/21 00:52:57;;;;;;;1.35;0.93;;;;;;;-140.72;100.00;52804.81;5026923;28;20531;-68
2022/09/21 00:55:43;;;;;;;2.22;0.90;;;;;;;-140.72;100.00;52843.38;5038838;28;20033;-68
2022/09/21 00:58:14;;;;;;;2.25;0.77;;;;;;;-140.72;100.00;52784.53;5028248;28;20387;-69
2022/09/21 01:00:40;;;;;;;2.58;1.08;;;;;;;-140.72;100.00;52776.41;5039537;28;20461;-66
2022/09/21 01:03:11;;;;;;;5.05;1.30;;;;;;;-140.72;100.00;52802.78;5039857;28;20041;-68
2022/09/21 01:05:37;;;;;;;3.17;1.27;;;;;;;-140.72;100.00;52831.19;5038609;28;20469;-69
2022/09/21 01:08:06;;;;;;;3.25;0.68;;;;;;;-140.72;100.00;52792.66;5039227;28;20025;-68
2022/09/21 01:10:56;;;;;;;2.05;0.70;;;;;;;-140.72;100.00;52817.00;5039501;28;20049;-69
2022/09/21 01:13:29;;;;;;;4.18;1.60;;;;;;;-140.72;100.00;52853.53;5039246;28;20033;-69
2022/09/21 01:16:12;;;;;;;2.75;0.98;;;;;;;-140.72;100.00;52802.78;5039128;28;20539;-68
2022/09/21 01:19:10;;;;;;;5.47;1.30;;;;;;;-140.72;100.00;52812.94;5039063;28;20611;-69
2022/09/21 01:21:50;;;;;;;0.98;0.70;;;;;;;-140.72;100.00;52861.66;5038143;28;20112;-67
2022/09/21 01:24:32;;;;;;;1.77;1.13;;;;;;;-140.72;100.00;52821.06;5038352;28;20060;-67
2022/09/21 01:27:16;;;;;;;3.25;0.93;;;;;;;-140.72;100.00;52829.19;5038744;28;20359;-68
2022/09/21 01:29:50;;;;;;;4.35;1.27;;;;;;;-140.72;100.00;52794.69;5039233;28;20029;-69
2022/09/21 01:32:32;;;;;;;5.95;1.15;;;;;;;-140.72;100.00;52863.66;5039348;28;20031;-69
2022/09/21 01:35:08;;;;;;;6.18;0.82;;;;;;;-140.72;100.00;52821.06;5039063;28;20064;-68
2022/09/21 01:37:42;;;;;;;2.80;1.10;;;;;;;-140.72;100.00;52833.22;5037976;28;20056;-68
2022/09/21 01:40:17;;;;;;;1.70;1.17;;;;;;;-140.72;100.00;52859.63;5036977;28;20366;-69
2022/09/21 01:42:46;;;;;;;2.10;0.85;;;;;;;-140.72;100.00;52867.72;5036825;28;20073;-69
2022/09/21 01:45:17;;;;;;;1.45;0.82;;;;;;;-140.72;100.00;52825.13;5036687;28;20029;-69
2022/09/21 01:47:46;;;;;;;4.40;0.82;;;;;;;-140.72;100.00;52851.50;5037933;28;20476;-69
2022/09/21 01:50:16;;;;;;;2.72;1.00;;;;;;;-140.72;100.00;52812.94;5038788;28;20049;-68
2022/09/21 01:53:01;;;;;;;1.77;1.20;;;;;;;-140.72;100.00;52821.06;5038109;28;20064;-68
2022/09/21 01:55:33;;;;;;;3.35;1.17;;;;;;;-140.72;100.00;52853.53;5035854;28;20041;-69
2022/09/21 01:58:10;;;;;;;3.97;1.35;;;;;;;-140.72;100.00;52865.69;5038410;28;20057;-68
2022/09/21 02:00:38;;;;;;;1.75;0.90;;;;;;;-140.72;100.00;52847.44;5035836;28;20030;-68
2022/09/21 02:03:14;;;;;;;3.45;1.50;;;;;;;-140.72;100.00;52845.41;5035732;28;20033;-69
2022/09/21 02:05:41;;;;;;;1.10;0.80;;;;;;;-140.72;100.00;52845.41;5037430;28;20081;-69
2022/09/21 02:08:07;;;;;;;1.70;1.05;;;;;;;-140.72;100.00;52857.59;5038216;28;20496;-70
2022/09/21 02:10:41;;;;;;;1.42;0.88;;;;;;;-140.72;100.00;52849.47;5036304;28;20021;-70
2022/09/21 02:13:08;;;;;;;2.50;1.20;;;;;;;-140.72;100.00;52843.38;5037276;28;20029;-69
2022/09/21 02:15:52;;;;;;;3.45;1.35;;;;;;;-140.72;100.00;52833.22;5036454;28;20374;-67
2022/09/21 02:18:24;;;;;;;4.00;1.20;;;;;;;-140.72;100.00;52877.88;5037453;28;20030;-68
2022/09/21 02:20:56;;;;;;;1.95;1.20;;;;;;;-140.72;100.00;52843.38;5038448;28;20089;-68
2022/09/21 02:23:35;;;;;;;2.72;1.13;;;;;;;-140.72;100.00;52908.31;5038873;28;20033;-68
2022/09/21 02:26:15;;;;;;;4.30;1.40;;;;;;;-140.72;100.00;52861.66;5034226;28;20026;-68
2022/09/21 02:29:00;;;;;;;1.85;0.90;;;;;;;-140.72;100.00;52888.03;5037957;28;20026;-69
2022/09/21 02:31:46;;;;;;;3.25;1.20;;;;;;;-140.72;100.00;52869.75;5036808;28;20025;-69
2022/09/21 02:34:17;;;;;;;6.32;1.70;;;;;;;-140.72;100.00;52831.19;5053084;23;20504;-69
2022/09/21 02:36:57;;;;;;;2.22;0.93;;;;;;;-140.72;100.00;52808.88;5016229;28;20140;-69
2022/09/21 02:39:34;;;;;;;2.35;1.08;;;;;;;-140.72;100.00;52869.75;5002767;28;20083;-69
2022/09/21 02:42:14;;;;;;;3.10;1.52;;;;;;;-140.72;100.00;52873.81;5007653;28;20037;-68
2022/09/21 02:44:45;;;;;;;4.43;1.30;;;;;;;-140.72;100.00;52861.66;5015770;28;20022;-69
2022/09/21 02:47:27;;;;;;;2.30;1.20;;;;;;;-140.72;100.00;52861.66;5017973;28;20104;-68
2022/09/21 02:50:00;;;;;;;1.13;0.82;;;;;;;-140.72;100.00;52833.22;5016105;28;20026;-68
2022/09/21 02:52:28;;;;;;;5.28;1.23;;;;;;;-140.72;100.00;52849.47;5014323;28;20093;-68
2022/09/21 02:54:55;;;;;;;4.35;1.10;;;;;;;-140.72;100.00;52883.97;5013222;28;20091;-69
2022/09/21 02:57:22;;;;;;;1.20;0.93;;;;;;;-140.72;100.00;52849.47;5010611;28;20143;-68
2022/09/21 02:59:49;;;;;;;2.67;1.10;;;;;;;-140.72;100.00;52849.47;5016784;28;20018;-68
2022/09/21 03:02:14;;;;;;;2.25;1.40;;;;;;;-140.72;100.00;52857.59;5009232;28;20030;-68
2022/09/21 03:04:42;;;;;;;3.45;1.70;;;;;;;-140.72;100.00;52888.03;5013926;28;20052;-68
2022/09/21 03:07:08;;;;;;;3.58;1.83;;;;;;;-140.72;100.00;52861.66;5025827;28;20092;-69
2022/09/21 03:09:34;;;;;;;2.60;1.65;;;;;;;-140.72;100.00;52835.25;5004872;28;20117;-68
2022/09/21 03:11:59;;;;;;;4.03;1.85;;;;;;;-140.72;100.00;52906.28;5015723;28;20401;-69
2022/09/21 03:14:24;;;;;;;2.80;1.52;;;;;;;-140.72;100.00;52892.09;5026455;28;20034;-68
2022/09/21 03:16:50;;;;;;;2.58;1.58;;;;;;;-140.72;100.00;52873.81;5010947;28;20030;-68
2022/09/21 03:19:16;;;;;;;4.68;1.95;;;;;;;-140.72;100.00;52873.81;5009439;28;20413;-68
2022/09/21 03:21:41;;;;;;;5.68;2.30;;;;;;;-140.72;100.00;52851.50;5010382;28;20366;-69
2022/09/21 03:24:07;;;;;;;2.63;1.60;;;;;;;-140.72;100.00;52819.03;5010418;28;20019;-69
2022/09/21 03:26:32;;;;;;;5.80;2.00;;;;;;;-140.72;100.00;52863.66;5011759;28;20093;-69
2022/09/21 03:28:57;;;;;;;2.83;1.50;;;;;;;-140.72;100.00;52877.88;5010403;28;20480;-69
2022/09/21 03:31:23;;;;;;;5.75;2.10;;;;;;;-140.72;100.00;52894.13;5013122;28;20134;-69
2022/09/21 03:33:48;;;;;;;2.80;1.77;;;;;;;-140.72;100.00;52865.69;5009776;28;20066;-69
2022/09/21 03:36:14;;;;;;;2.83;1.33;;;;;;;-140.72;100.00;52886.00;5013601;28;20125;-68
2022/09/21 03:38:39;;;;;;;2.08;1.17;;;;;;;-140.72;100.00;52877.88;5013693;28;20038;-68
2022/09/21 03:41:06;;;;;;;4.05;1.60;;;;;;;-140.72;100.00;52906.28;5011731;28;20122;-68
2022/09/21 03:43:31;;;;;;;5.10;1.55;;;;;;;-140.72;100.00;52871.78;5013579;28;20034;-68
2022/09/21 03:45:57;;;;;;;2.15;1.27;;;;;;;-140.72;100.00;52886.00;5014968;28;20025;-69
2022/09/21 03:48:22;;;;;;;2.42;1.40;;;;;;;-140.72;100.00;52890.06;5016089;28;20029;-68
2022/09/21 03:50:48;;;;;;;3.45;1.50;;;;;;;-140.72;100.00;52879.91;5007187;28;20031;-68
2022/09/21 03:53:14;;;;;;;2.75;1.42;;;;;;;-140.72;100.00;52910.34;5018507;28;20073;-69
2022/09/21 03:55:40;;;;;;;6.95;1.60;;;;;;;-140.72;100.00;52857.59;5015214;28;20080;-69
2022/09/21 03:58:05;;;;;;;4.07;1.88;;;;;;;-140.72;100.00;52908.31;5020182;28;20377;-69
2022/09/21 04:00:31;;;;;;;2.08;1.33;;;;;;;-140.72;100.00;52859.63;5008658;28;20034;-68
2022/09/21 04:02:57;;;;;;;2.03;1.23;;;;;;;-140.72;100.00;52859.63;5018739;28;20108;-68
2022/09/21 04:05:23;;;;;;;4.25;1.83;;;;;;;-140.72;100.00;52906.28;5013910;28;20061;-68
2022/09/21 04:07:48;;;;;;;2.58;1.58;;;;;;;-140.72;100.00;52875.84;5014081;28;20496;-69
2022/09/21 04:10:20;;;;;;;1.85;1.65;;;;;;;-140.72;100.00;52912.38;5012480;28;20044;-68
2022/09/21 04:12:46;;;;;;;2.38;1.30;;;;;;;-140.72;100.00;52859.63;5008376;28;20049;-69
2022/09/21 04:15:18;;;;;;;3.03;1.52;;;;;;;-140.72;100.00;52926.59;5006249;28;20045;-69
2022/09/21 04:17:44;;;;;;;2.97;1.45;;;;;;;-140.72;100.00;52888.03;5008472;28;20022;-68
2022/09/21 04:20:10;;;;;;;2.35;1.42;;;;;;;-140.72;100.00;52898.16;5008615;28;20085;-68
2022/09/21 04:22:35;;;;;;;1.52;0.85;;;;;;;-140.72;100.00;52890.06;5013509;28;20065;-68
2022/09/21 04:25:04;;;;;;;3.80;1.80;;;;;;;-140.72;100.00;52888.03;5013211;28;20073;-68
2022/09/21 04:27:31;;;;;;;2.85;1.25;;;;;;;-140.72;100.00;52892.09;5006772;28;20121;-68
2022/09/21 04:29:56;;;;;;;6.25;2.00;;;;;;;-140.72;100.00;52894.13;5008389;28;20035;-69
2022/09/21 04:32:22;;;;;;;1.75;1.15;;;;;;;-140.72;100.00;52859.63;5010179;28;20026;-68
2022/09/21 04:34:47;;;;;;;5.07;2.08;;;;;;;-140.72;100.00;52886.00;5007558;28;20061;-68
2022/09/21 04:37:12;;;;;;;2.25;1.42;;;;;;;-140.72;100.00;52908.31;5016754;28;20109;-68
2022/09/21 04:39:38;;;;;;;2.75;1.40;;;;;;;-140.72;100.00;52932.66;5009749;28;20021;-72
2022/09/21 04:42:05;;;;;;;2.33;1.50;;;;;;;-140.72;100.00;52869.75;5014837;28;20069;-70
2022/09/21 04:44:30;;;;;;;3.30;1.45;;;;;;;-140.72;100.00;52857.59;5012624;28;20473;-68
2022/09/21 04:46:57;;;;;;;2.38;1.58;;;;;;;-140.72;100.00;52908.31;5009368;28;20036;-68
2022/09/21 04:49:22;;;;;;;7.95;1.67;;;;;;;-140.72;100.00;52851.50;5007406;28;20420;-69
2022/09/21 04:51:48;;;;;;;4.32;1.80;;;;;;;-140.72;100.00;52916.44;5013056;28;20045;-71
2022/09/21 04:54:14;;;;;;;6.47;2.10;;;;;;;-140.72;100.00;52831.19;5008503;28;20030;-69
2022/09/21 04:56:39;;;;;;;7.82;2.20;;;;;;;-140.72;100.00;52908.31;5021047;28;20061;-70
2022/09/21 04:59:04;;;;;;;10.30;2.55;;;;;;;-140.72;100.00;52881.94;5005481;28;20508;-71
2022/09/21 05:01:30;;;;;;;3.97;2.13;;;;;;;-140.72;100.00;52865.69;5002462;28;20040;-70
2022/09/21 05:04:00;;;;;;;7.15;1.60;;;;;;;-140.72;100.00;52898.16;5003509;28;20224;-70
2022/09/21 05:06:29;;;;;;;2.95;1.75;;;;;;;-140.72;100.00;52894.13;5010996;28;20041;-69
2022/09/21 05:11:39;;;;;;;5.40;1.98;;;;;;;-140.72;100.00;52863.66;5011656;28;20080;-69
2022/09/21 05:14:05;;;;;;;3.78;2.15;;;;;;;-140.72;100.00;52894.13;5011702;28;20025;-68
2022/09/21 05:16:31;;;;;;;6.70;2.03;;;;;;;-140.72;100.00;52871.78;5007357;28;20037;-70
2022/09/21 05:18:56;;;;;;;3.33;2.03;;;;;;;-140.72;100.00;52892.09;5004860;28;20058;-70
2022/09/21 05:21:33;;;;;;;2.92;1.58;;;;;;;-140.72;100.00;52869.75;5006128;28;20022;-70
2022/09/21 05:23:58;;;;;;;7.78;2.22;;;;;;;-140.72;100.00;52873.81;5005663;28;20033;-71
2022/09/21 05:26:24;;;;;;;6.57;2.15;;;;;;;-140.72;100.00;52920.50;5004929;28;20060;-70
2022/09/21 05:28:51;;;;;;;3.47;2.22;;;;;;;-140.72;100.00;52873.81;5005667;28;20385;-71
2022/09/21 05:31:16;;;;;;;4.65;2.78;;;;;;;-140.72;100.00;52875.84;5003811;28;20026;-70
2022/09/21 05:33:50;;;;;;;3.50;1.92;;;;;;;-140.72;100.00;52890.06;5009250;28;20056;-71
2022/09/21 05:36:52;;;;;;;4.90;1.98;;;;;;;-140.72;100.00;52904.25;5004954;28;20488;-69
2022/09/21 05:39:17;;;;;;;2.70;1.30;;;;;;;-140.72;100.00;52886.00;5009131;28;20025;-69
2022/09/21 05:41:43;;;;;;;1.85;1.25;;;;;;;-140.72;100.00;52898.16;5004287;28;20040;-68
2022/09/21 05:44:13;;;;;;;5.15;2.28;;;;;;;-140.72;100.00;52908.31;4997145;28;20437;-69
2022/09/21 05:46:41;;;;;;;9.32;2.80;;;;;;;-140.72;100.00;52926.59;5008114;28;20030;-68
2022/09/21 05:49:16;;;;;;;4.93;1.88;;;;;;;-140.72;100.00;52847.44;5000047;28;20026;-69
2022/09/21 05:51:50;;;;;;;4.45;2.05;;;;;;;-140.72;100.00;52875.84;5002170;28;20037;-69
2022/09/21 05:54:25;;;;;;;5.93;2.75;;;;;;;-140.72;100.00;52825.13;5001291;28;20026;-68
2022/09/21 05:57:20;;;;;;;3.00;2.42;;;;;;;-140.72;100.00;52859.63;5004888;28;20034;-68
2022/09/21 06:00:17;;;;;;;4.15;2.40;;;;;;;-140.72;100.00;52869.75;5003476;28;20129;-68
2022/09/21 06:03:28;;;;;;;4.13;2.35;;;;;;;-140.72;100.00;52890.06;5010838;28;20049;-69
2022/09/21 06:06:02;;;;;;;5.97;2.55;;;;;;;-140.72;100.00;52879.91;5011985;28;20102;-69
2022/09/21 06:08:27;;;;;;;2.88;1.60;;;;;;;-140.72;100.00;52865.69;5014217;28;20056;-68
2022/09/21 06:11:00;;;;;;;3.85;1.90;;;;;;;-140.72;100.00;52861.66;5012936;28;20030;-69
2022/09/21 06:13:26;;;;;;;4.97;2.30;;;;;;;-140.72;100.00;52883.97;5009594;28;20068;-68
2022/09/21 06:15:52;;;;;;;3.10;1.95;;;;;;;-140.72;100.00;52886.00;5012586;28;20025;-69
2022/09/21 06:18:18;;;;;;;6.28;2.28;;;;;;;-140.72;100.00;52837.28;5006097;28;20026;-68
2022/09/21 06:20:43;;;;;;;3.10;1.90;;;;;;;-140.72;100.00;52867.72;5013829;28;20026;-68
2022/09/21 06:23:10;;;;;;;6.25;2.67;;;;;;;-140.72;100.00;52873.81;5015252;28;20031;-67
2022/09/21 06:25:37;;;;;;;3.42;1.95;;;;;;;-140.72;100.00;52837.28;5004497;28;20094;-67
2022/09/21 06:28:07;;;;;;;6.68;2.75;;;;;;;-140.72;100.00;52849.47;5016803;28;20033;-67
2022/09/21 06:30:33;;;;;;;7.15;2.38;;;;;;;-140.72;100.00;52861.66;5008246;28;20030;-67
2022/09/21 06:33:00;;;;;;;4.43;2.13;;;;;;;-140.72;100.00;52851.50;5017386;28;20044;-68
2022/09/21 06:35:27;;;;;;;3.45;2.28;;;;;;;-140.72;100.00;52845.41;5015284;28;20080;-69
2022/09/21 06:37:59;;;;;;;7.68;2.88;;;;;;;-140.72;100.00;52849.47;5004821;28;20423;-69
2022/09/21 06:40:29;;;;;;;9.75;3.00;;;;;;;-140.72;100.00;52861.66;5011799;28;20168;-71
2022/09/21 06:42:56;;;;;;;;;;;;;;;-140.72;100.00;52812.94;5021486;28;20022;-69
2022/09/21 06:45:21;;;;;;;6.10;2.67;;;;;;;-140.72;100.00;52869.75;5031902;28;19924;-67
2022/09/21 06:47:47;;;;;;;2.92;1.90;;;;;;;-140.72;100.00;52790.63;5014629;28;20025;-68
2022/09/21 06:50:12;;;;;;;5.38;2.35;;;;;;;-140.72;100.00;52831.19;5012745;28;20018;-66
2022/09/21 06:52:39;;;;;;;7.75;2.63;;;;;;;-140.72;100.00;52853.53;5010627;28;20112;-67
2022/09/21 06:55:05;;;;;;;5.20;2.17;;;;;;;-140.72;100.00;52861.66;5020728;28;20060;-67
2022/09/21 06:57:31;;;;;;;5.68;2.70;;;;;;;-140.72;100.00;52849.47;5021315;28;20041;-67
2022/09/21 06:59:56;;;;;;;3.97;2.50;;;;;;;-140.72;100.00;52817.00;5032009;28;20025;-66
2022/09/21 07:02:21;;;;;;;5.93;2.35;;;;;;;-140.72;100.00;52810.91;5009617;28;20026;-67
2022/09/21 07:04:46;;;;;;;3.53;2.35;;;;;;;-140.72;100.00;52841.34;5017084;28;20055;-67
2022/09/21 07:07:12;;;;;;;3.88;2.10;;;;;;;-140.72;100.00;52845.41;5009707;28;20022;-67
2022/09/21 07:09:37;;;;;;;5.30;2.42;;;;;;;-140.72;100.00;52823.09;5009474;28;20159;-67
2022/09/21 07:12:03;;;;;;;5.10;2.58;;;;;;;-140.72;100.00;52853.53;5026122;28;20065;-67
2022/09/21 07:14:28;;;;;;;3.10;2.20;;;;;;;-140.72;100.00;52861.66;5018572;28;20550;-67
2022/09/21 07:16:54;;;;;;;3.70;2.40;;;;;;;-140.72;100.00;52817.00;5041758;28;20112;-67
2022/09/21 07:19:19;;;;;;;3.05;2.03;;;;;;;-140.72;100.00;52855.56;5037854;28;20068;-67
2022/09/21 07:21:44;;;;;;;4.15;1.95;;;;;;;-140.72;100.00;52823.09;5024208;28;20049;-67
2022/09/21 07:24:10;;;;;;;2.75;1.80;;;;;;;-140.72;100.00;52841.34;5023617;28;20026;-67
2022/09/21 07:26:36;;;;;;;3.60;1.88;;;;;;;-140.72;100.00;52829.19;5023347;28;20037;-67
2022/09/21 07:29:01;;;;;;;6.57;1.70;;;;;;;-140.72;100.00;52802.78;5026234;28;20025;-68
2022/09/21 07:31:27;;;;;;;2.58;1.45;;;;;;;-140.72;100.00;52796.72;5042238;28;20033;-68
2022/09/21 07:33:57;;;;;;;3.58;1.67;;;;;;;-140.72;100.00;52831.19;5033076;28;20086;-69
2022/09/21 07:36:23;;;;;;;2.83;1.38;;;;;;;-140.72;100.00;52802.78;5027242;28;20076;-67
2022/09/21 07:38:48;;;;;;;3.55;1.67;;;;;;;-140.72;100.00;52804.81;5020405;28;20038;-67
2022/09/21 07:41:13;;;;;;;2.33;1.10;;;;;;;-140.72;100.00;52843.38;5024374;28;20025;-68
2022/09/21 07:43:39;;;;;;;4.28;1.08;;;;;;;-140.72;100.00;52814.97;5023896;28;20029;-68
2022/09/21 07:46:11;;;;;;;4.75;1.13;;;;;;;-140.72;100.00;52784.53;5024342;28;20084;-68
2022/09/21 07:48:36;;;;;;;3.15;1.48;;;;;;;-140.72;100.00;52800.75;5028568;28;20037;-67
2022/09/21 07:51:07;;;;;;;5.85;1.50;;;;;;;-140.72;100.00;52768.28;5030698;28;20033;-68
2022/09/21 07:53:33;;;;;;;2.88;1.35;;;;;;;-140.72;100.00;52772.34;5013277;28;20035;-68
2022/09/21 07:56:07;;;;;;;3.47;1.10;;;;;;;-140.72;100.00;52768.28;5025343;28;20053;-68
2022/09/21 08:01:21;;;;;;;3.40;0.90;;;;;;;-140.72;100.00;52743.94;5015767;28;20045;-67
2022/09/21 08:03:50;;;;;;;2.05;1.10;;;;;;;-140.72;100.00;52764.25;5033931;28;20470;-67
2022/09/21 08:06:16;;;;;;;3.60;1.15;;;;;;;-140.72;100.00;52756.13;5005790;28;20172;-68
2022/09/21 08:08:41;;;;;;;5.20;1.17;;;;;;;-140.72;100.00;52768.28;5020914;28;20014;-68
2022/09/21 08:11:07;;;;;;;1.88;0.82;;;;;;;-140.72;100.00;52723.66;5023216;28;20053;-68
2022/09/21 08:13:33;;;;;;;1.52;0.80;;;;;;;-140.72;100.00;52752.06;5031195;28;20026;-67
2022/09/21 08:16:00;;;;;;;2.58;0.82;;;;;;;-140.72;100.00;52721.63;5008288;28;20030;-67
2022/09/21 08:18:26;;;;;;;0.60;0.22;;;;;;;-140.72;100.00;52735.81;5024567;28;20029;-67
2022/09/21 08:20:59;;;;;;;1.95;0.35;;;;;;;-140.72;100.00;52741.91;5019131;28;20035;-67
2022/09/21 08:23:27;;;;;;;3.50;0.73;;;;;;;-140.72;100.00;52727.72;5015843;28;20037;-68
2022/09/21 08:25:57;;;;;;;0.65;0.40;;;;;;;-140.72;100.00;52731.75;5015844;28;20022;-68
2022/09/21 08:28:24;;;;;;;2.00;0.75;;;;;;;-140.72;100.00;52713.50;5016260;28;20030;-67
2022/09/21 08:30:49;;;;;;;2.15;0.65;;;;;;;-140.72;100.00;52662.78;5022077;28;20029;-67
2022/09/21 08:33:14;;;;;;;1.65;0.77;;;;;;;-140.72;100.00;52699.31;5018777;28;20069;-68
2022/09/21 08:35:40;;;;;;;2.85;0.40;;;;;;;-140.72;100.00;52735.81;5024309;28;20014;-67
2022/09/21 08:38:05;;;;;;;0.73;0.50;;;;;;;-140.72;100.00;52707.41;5010702;28;20030;-67
2022/09/21 08:40:32;;;;;;;3.67;0.77;;;;;;;-140.72;100.00;52681.03;5009847;28;20045;-68
2022/09/21 08:43:02;;;;;;;3.35;0.55;;;;;;;-140.72;100.00;52654.66;5011352;28;20046;-67
2022/09/21 08:45:39;;;;;;;0.75;0.50;;;;;;;-140.72;100.00;52662.78;5010683;28;20049;-67
2022/09/21 08:48:13;;;;;;;1.85;0.60;;;;;;;-140.72;100.00;52676.97;5019989;28;20112;-67
2022/09/21 08:50:45;;;;;;;3.88;0.60;;;;;;;-140.72;100.00;52618.13;5027284;28;20030;-68
2022/09/21 08:53:18;;;;;;;2.42;0.55;;;;;;;-140.72;100.00;52618.13;5008997;28;20030;-68
2022/09/21 08:55:44;;;;;;;3.67;0.30;;;;;;;-140.72;100.00;52628.28;5020683;28;20026;-68
2022/09/21 08:58:31;;;;;;;3.25;0.32;;;;;;;-140.72;100.00;52632.34;5016105;28;20022;-67
2022/09/21 09:01:13;;;;;;;1.00;0.30;;;;;;;-140.72;100.00;52585.66;5014027;28;20084;-68
2022/09/21 09:04:03;;;;;;;1.55;0.30;;;;;;;-140.72;100.00;52595.81;5029297;28;20129;-68
2022/09/21 09:06:49;;;;;;;;;;;;;;;-140.72;100.00;52607.97;5014441;28;20110;-68
2022/09/21 09:09:47;;;;;;;0.80;0.17;;;;;;;-140.72;100.00;52614.06;5017064;28;20373;-68
2022/09/21 09:13:06;;;;;;;1.45;0.60;;;;;;;-140.72;100.00;52593.78;4971110;28;20051;-69
2022/09/21 09:15:43;;;;;;;0.88;0.40;;;;;;;-140.72;100.00;52577.53;4926797;29;20040;-69
2022/09/21 09:18:15;;;;;;;2.88;0.70;;;;;;;-140.72;100.00;52610.00;5006239;28;20571;-70
2022/09/21 09:20:51;;;;;;;0.57;0.20;;;;;;;-140.72;100.00;52577.53;5014501;28;20461;-69
2022/09/21 09:23:25;;;;;;;1.48;0.43;;;;;;;-140.72;100.00;52605.94;5008084;28;20030;-70
2022/09/21 09:25:55;;;;;;;1.83;0.47;;;;;;;-140.72;100.00;52589.72;5011366;28;20060;-69
2022/09/21 09:28:35;;;;;;;2.55;0.32;;;;;;;-140.72;100.00;52551.16;5009745;28;20130;-71
2022/09/21 09:31:09;;;;;;;1.02;0.40;;;;;;;-140.72;100.00;52587.69;5006572;28;20033;-70
2022/09/21 09:33:54;;;;;;;0.65;0.25;;;;;;;-140.72;100.00;52575.50;5009193;28;20149;-69
2022/09/21 09:36:22;;;;;;;2.58;0.40;;;;;;;-140.72;100.00;52555.22;5006119;28;20454;-69
2022/09/21 09:38:56;;;;;;;1.33;0.32;;;;;;;-140.72;100.00;52506.53;5008529;28;20019;-69
2022/09/21 09:41:24;;;;;;;0.52;0.20;;;;;;;-140.72;100.00;52524.78;5011437;28;20022;-70
2022/09/21 09:44:20;;;;;;;3.47;0.50;;;;;;;-140.72;100.00;52496.38;5017169;28;20084;-71
2022/09/21 09:47:04;;;;;;;2.25;0.20;;;;;;;-140.72;0.00;52502.47;5012179;28;20057;-70
2022/09/21 09:49:55;;;;;;;0.75;0.10;;;;;;;-140.72;0.00;52470.00;5015314;28;20042;-68
2022/09/21 09:52:21;;;;;;;0.30;0.10;;;;;;;-140.72;0.00;52463.91;5025172;28;20025;-69
2022/09/21 09:54:47;;;;;;;1.17;0.40;;;;;;;-140.72;0.00;52465.94;5010049;28;20044;-67
2022/09/21 09:57:14;;;;;;;2.30;0.30;;;;;;;-140.72;0.00;52488.25;5005058;28;20049;-68
2022/09/21 09:59:47;;;;;;;5.45;0.35;;;;;;;-140.72;0.00;52472.03;5007598;28;20151;-68
2022/09/21 10:02:19;;;;;;;1.85;0.43;;;;;;;-140.72;0.00;52439.56;5017243;28;20029;-68
2022/09/21 10:05:07;;;;;;;0.32;0.10;;;;;;;-140.72;0.00;52427.38;5019017;28;20430;-68
2022/09/21 10:07:44;;;;;;;1.48;0.30;;;;;;;-140.72;0.00;52405.06;5004806;28;20496;-68
2022/09/21 10:10:28;;;;;;;1.45;0.32;;;;;;;-140.72;0.00;52451.72;5009650;28;20040;-68
2022/09/21 10:13:14;;;;;;;1.08;0.30;;;;;;;-140.72;0.00;52415.22;5015581;28;20028;-68
2022/09/21 10:15:44;;;;;;;1.92;0.20;;;;;;;-140.72;0.00;52384.78;5020457;28;20121;-68
2022/09/21 10:18:23;;;;;;;0.65;0.22;;;;;;;-140.72;0.00;52354.34;5028682;28;20384;-68
2022/09/21 10:21:16;;;;;;;1.42;0.43;;;;;;;-140.72;0.00;52356.38;5017959;28;20094;-68
2022/09/21 10:23:48;;;;;;;3.05;0.30;;;;;;;-140.72;0.00;52384.78;5007484;28;20070;-68
2022/09/21 10:26:15;;;;;;;0.77;0.30;;;;;;;-140.72;0.00;52407.09;5018352;28;20104;-68
2022/09/21 10:29:15;;;;;;;1.60;0.25;;;;;;;-140.72;0.00;52376.66;5005372;28;20022;-68
2022/09/21 10:31:55;;;;;;;0.57;0.20;;;;;;;-140.72;0.00;52356.38;5006764;28;20445;-70
2022/09/21 10:34:20;;;;;;;0.50;0.15;;;;;;;-140.72;0.00;52293.47;5009960;28;20054;-69
2022/09/21 10:36:53;;;;;;;0.45;0.10;;;;;;;-140.72;0.00;52340.13;5013016;28;20040;-69
2022/09/21 10:39:18;;;;;;;0.80;0.20;;;;;;;-140.72;0.00;52248.81;4999978;28;20026;-68
2022/09/21 10:42:00;;;;;;;0.43;0.20;;;;;;;-140.72;0.00;52325.94;5012171;28;20029;-68
2022/09/21 10:44:32;;;;;;;0.32;0.20;;;;;;;-140.72;0.00;52303.59;5000873;28;20113;-69
2022/09/21 10:47:03;;;;;;;2.40;0.20;;;;;;;-140.72;0.00;52388.84;5002240;28;20133;-69
2022/09/21 10:49:28;;;;;;;4.05;0.28;;;;;;;-140.72;0.00;52476.09;5002883;28;20057;-68
2022/09/21 10:51:57;;;;;;;1.00;0.10;;;;;;;-140.72;0.00;52516.66;5018228;28;20026;-68
2022/09/21 10:54:27;;;;;;;1.33;0.30;;;;;;;-140.72;0.00;52518.69;5004758;28;20022;-68
2022/09/21 10:57:01;;;;;;;0.35;0.10;;;;;;;-140.72;0.00;52421.28;5003771;28;20034;-68
2022/09/21 10:59:35;;;;;;;2.40;0.35;;;;;;;-140.72;0.00;52370.56;5025192;28;20120;-69
2022/09/21 11:02:22;;;;;;;0.77;0.20;;;;;;;-140.72;0.00;52334.03;5019961;28;20156;-68
2022/09/21 11:04:52;;;;;;;0.82;0.25;;;;;;;-140.72;0.00;52283.31;5010500;28;20045;-69
2022/09/21 11:07:38;;;;;;;1.15;0.22;;;;;;;-140.72;0.00;52265.06;5017248;28;20060;-67
2022/09/21 11:10:45;;;;;;;0.50;0.20;;;;;;;-140.72;0.00;52273.19;5002223;28;20034;-68
2022/09/21 11:13:30;;;;;;;1.05;0.28;;;;;;;-140.72;0.00;52157.53;4979430;28;20551;-67
2022/09/21 11:16:12;;;;;;;0.45;0.10;;;;;;;-140.72;0.00;52175.78;5015683;28;20117;-69
2022/09/21 11:19:06;;;;;;;0.82;0.20;;;;;;;-140.72;0.00;52285.34;5019487;28;20030;-67
2022/09/21 11:21:44;;;;;;;0.30;0.10;;;;;;;-140.72;0.00;52279.25;5022317;28;20111;-68
2022/09/21 11:24:23;;;;;;;0.40;0.23;;;;;;;-140.72;0.00;52425.34;5020983;28;20110;-67
2022/09/21 11:26:55;;;;;;;0.85;0.10;;;;;;;-140.72;0.00;52344.19;5032761;28;20032;-67
2022/09/21 11:29:25;;;;;;;0.30;0.10;;;;;;;-140.72;0.00;52265.06;5019761;28;20037;-67
2022/09/21 11:32:21;;;;;;;0.65;0.22;;;;;;;-140.72;0.00;52179.84;5008177;28;20029;-67
2022/09/21 11:35:07;;;;;;;0.75;0.20;;;;;;;-140.72;0.00;52056.06;5023744;28;20121;-67
2022/09/21 11:37:58;;;;;;;0.90;0.20;;;;;;;-140.72;0.00;52232.59;5026928;28;20420;-68